createdAt,value
2022-10-08T00:09:00.712Z,85.49
2022-10-08T00:19:22.189Z,85.21
2022-10-08T00:29:44.745Z,86.41
2022-10-08T00:40:06.639Z,85.93
2022-10-08T00:50:35.316Z,86.64
2022-10-08T01:00:58.029Z,86.94
2022-10-08T01:11:56.825Z,86.87
2022-10-08T01:22:52.393Z,87.77
2022-10-08T01:33:23.023Z,88.02
2022-10-08T01:43:54.525Z,88.60
2022-10-08T01:54:17.649Z,89.49
2022-10-08T02:04:39.148Z,89.10
2022-10-08T02:15:03.737Z,89.19
2022-10-08T02:25:58.845Z,91.93
2022-10-08T02:36:26.044Z,93.95
2022-10-08T02:46:51.350Z,94.20
2022-10-08T02:57:18.509Z,93.90
2022-10-08T03:07:40.006Z,94.43
2022-10-08T03:18:06.222Z,95.41
2022-10-08T03:28:27.776Z,96.08
2022-10-08T03:38:49.914Z,96.74
2022-10-08T03:49:11.378Z,97.02
2022-10-08T03:59:32.903Z,96.95
2022-10-08T04:09:54.360Z,98.61
2022-10-08T04:20:15.851Z,100.00
2022-10-08T04:30:37.300Z,100.00
2022-10-08T04:41:06.697Z,100.00
2022-10-08T04:51:28.500Z,100.00
2022-10-08T05:01:50.177Z,100.00
2022-10-08T05:12:11.739Z,100.00
2022-10-08T05:22:33.539Z,100.00
2022-10-08T05:32:55.090Z,100.00
2022-10-08T05:43:16.587Z,100.00
2022-10-08T05:53:39.783Z,100.00
2022-10-08T06:04:09.024Z,100.00
2022-10-08T06:14:30.693Z,100.00
2022-10-08T06:24:52.140Z,100.00
2022-10-08T06:35:13.647Z,100.00
2022-10-08T06:45:39.439Z,100.00
2022-10-08T06:56:03.283Z,100.00
2022-10-08T07:06:25.656Z,100.00
2022-10-08T07:16:47.610Z,100.00
2022-10-08T07:27:09.118Z,100.00
2022-10-08T07:37:30.583Z,100.00
2022-10-08T07:47:52.023Z,100.00
2022-10-08T07:58:13.551Z,100.00
2022-10-08T08:08:37.255Z,98.72
2022-10-08T08:19:00.441Z,94.69
2022-10-08T08:29:21.953Z,91.66
2022-10-08T08:39:43.403Z,91.67
2022-10-08T08:50:25.991Z,91.48
2022-10-08T09:00:56.295Z,88.31
2022-10-08T09:11:20.866Z,88.52
2022-10-08T09:21:42.424Z,84.15
2022-10-08T09:32:04.019Z,83.70
2022-10-08T09:42:25.514Z,83.73
2022-10-08T09:52:50.575Z,84.90
2022-10-08T10:03:19.744Z,85.28
2022-10-08T10:13:42.319Z,98.22
2022-10-08T10:24:06.834Z,100.00
2022-10-08T10:34:30.535Z,92.08
2022-10-08T10:44:52.356Z,85.76
2022-10-08T10:55:13.690Z,82.92
2022-10-08T11:05:37.221Z,81.67
2022-10-08T11:16:31.173Z,78.44
2022-10-08T11:27:19.462Z,73.17
2022-10-08T11:37:45.194Z,73.07
2022-10-08T11:48:25.535Z,72.00
2022-10-08T11:58:54.118Z,71.45
2022-10-08T12:09:25.338Z,72.74
2022-10-08T12:20:18.905Z,73.01
2022-10-08T12:30:55.600Z,71.37
2022-10-08T12:42:00.605Z,73.30
2022-10-08T12:52:23.240Z,79.53
2022-10-08T13:02:57.552Z,81.18
2022-10-08T13:13:40.745Z,79.01
2022-10-08T13:24:11.375Z,72.75
2022-10-08T13:34:39.201Z,68.61
2022-10-08T13:45:03.321Z,66.74
2022-10-08T13:55:33.960Z,63.26
2022-10-08T14:05:55.428Z,57.23
2022-10-08T14:16:16.934Z,62.09
2022-10-08T14:26:38.360Z,63.95
2022-10-08T14:37:00.106Z,64.72
2022-10-08T14:47:21.647Z,69.42
2022-10-08T14:57:43.766Z,71.27
2022-10-08T15:08:05.205Z,80.81
2022-10-08T15:18:30.155Z,85.61
2022-10-08T15:28:53.526Z,80.92
2022-10-08T15:39:17.333Z,79.98
2022-10-08T15:49:41.705Z,80.68
2022-10-08T16:00:03.523Z,81.92
2022-10-08T16:10:25.283Z,81.75
2022-10-08T16:20:50.590Z,80.47
2022-10-08T16:31:14.105Z,82.34
2022-10-08T16:41:37.248Z,84.25
2022-10-08T16:52:04.390Z,86.31
2022-10-08T17:02:27.208Z,85.73
2022-10-08T17:12:49.191Z,86.07
2022-10-08T17:23:11.474Z,87.79
2022-10-08T17:33:35.770Z,88.36
2022-10-08T17:44:01.476Z,88.77
2022-10-08T17:54:23.088Z,89.79
2022-10-08T18:04:44.583Z,90.32
2022-10-08T18:15:06.369Z,91.21
2022-10-08T18:25:27.933Z,92.03
2022-10-08T18:35:49.382Z,92.08
2022-10-08T18:46:11.941Z,93.55
2022-10-08T18:56:35.458Z,92.64
2022-10-08T19:06:56.997Z,93.12
2022-10-08T19:17:18.496Z,93.45
2022-10-08T19:27:39.975Z,94.54
2022-10-08T19:38:01.430Z,94.26
2022-10-08T19:48:22.917Z,95.94
2022-10-08T19:58:48.665Z,96.26
2022-10-08T20:09:12.417Z,95.74
2022-10-08T20:19:33.985Z,97.60
2022-10-08T20:29:55.586Z,98.12
2022-10-08T20:40:17.033Z,99.39
2022-10-08T20:50:38.518Z,100.00
2022-10-08T21:01:10.729Z,100.00
2022-10-08T21:11:35.276Z,100.00
2022-10-08T21:21:56.784Z,100.00
2022-10-08T21:32:18.290Z,100.00
2022-10-08T21:42:39.857Z,100.00
2022-10-08T21:53:01.327Z,100.00
2022-10-08T22:03:23.216Z,100.00
2022-10-08T22:13:44.731Z,100.00
2022-10-08T22:24:06.372Z,100.00
2022-10-08T22:34:27.871Z,100.00
2022-10-08T22:44:49.356Z,100.00
2022-10-08T22:55:11.574Z,100.00
2022-10-08T23:05:33.179Z,100.00
2022-10-08T23:16:09.914Z,100.00
2022-10-08T23:26:31.423Z,100.00
2022-10-08T23:36:52.885Z,100.00
2022-10-08T23:47:14.335Z,100.00
2022-10-08T23:57:35.796Z,100.00
